Time;durP1;ratioP1;P1;durP2;ratioP2;P2;SDS_P1;SDS_P2;PMS_P1;PMS_P2;Temp;Humidity;BMP_temperature;BMP_pressure;BME280_temperature;BME280_humidity;BME280_pressure;Samples;Min_cycle;Max_cycle;Signal;HPM_P1;HPM_P2
2023/01/18 00:00:13;;;;;;;3.25;0.90;;;12.20;1.00;;;;;;4988306;28;20046;-73
2023/01/18 00:02:40;;;;;;;4.13;0.98;;;12.20;1.00;;;;;;4973106;28;20042;-72
2023/01/18 00:05:10;;;;;;;5.80;1.40;;;12.30;1.00;;;;;;4976081;28;20043;-72
2023/01/18 00:07:37;;;;;;;1.65;0.90;;;12.30;1.00;;;;;;4992950;28;20049;-73
2023/01/18 00:10:06;;;;;;;3.60;2.05;;;12.30;1.00;;;;;;4990413;28;20042;-73
2023/01/18 00:12:33;;;;;;;5.28;2.20;;;12.40;1.00;;;;;;4994061;28;20038;-73
2023/01/18 00:15:01;;;;;;;2.70;1.10;;;12.40;1.00;;;;;;4976204;28;20061;-72
2023/01/18 00:17:28;;;;;;;2.50;1.10;;;12.40;1.00;;;;;;4993553;28;20133;-72
2023/01/18 00:19:56;;;;;;;4.25;1.33;;;12.30;1.00;;;;;;4992220;28;20043;-72
2023/01/18 00:22:25;;;;;;;3.15;0.95;;;12.30;1.00;;;;;;4993196;28;20049;-73
2023/01/18 00:24:52;;;;;;;2.40;0.63;;;12.30;1.00;;;;;;4992591;28;20061;-72
2023/01/18 00:27:20;;;;;;;2.42;0.70;;;12.30;1.00;;;;;;4991880;28;20130;-72
2023/01/18 00:29:47;;;;;;;2.85;0.93;;;12.30;1.00;;;;;;4993265;28;20050;-72
2023/01/18 00:32:15;;;;;;;2.13;0.82;;;12.30;1.00;;;;;;4992480;28;20055;-72
2023/01/18 00:34:43;;;;;;;3.42;0.73;;;12.30;1.00;;;;;;4991369;28;20050;-72
2023/01/18 00:37:10;;;;;;;2.50;0.80;;;12.30;1.00;;;;;;4992601;28;20041;-72
2023/01/18 00:39:40;;;;;;;2.50;1.05;;;12.30;1.00;;;;;;4993308;28;20461;-71
2023/01/18 00:44:52;;;;;;;3.22;1.10;;;12.40;1.00;;;;;;4990919;28;20133;-72
2023/01/18 00:47:20;;;;;;;2.45;1.02;;;12.30;1.00;;;;;;4991030;28;20042;-72
2023/01/18 00:49:47;;;;;;;3.08;1.20;;;12.40;1.00;;;;;;4991084;28;20043;-72
2023/01/18 00:52:14;;;;;;;4.20;1.85;;;12.40;1.00;;;;;;4993178;28;20054;-73
2023/01/18 00:54:43;;;;;;;3.90;1.15;;;12.40;1.00;;;;;;4988803;28;20034;-73
2023/01/18 00:57:11;;;;;;;3.15;1.58;;;12.40;1.00;;;;;;4991566;28;20442;-72
2023/01/18 00:59:38;;;;;;;3.40;1.40;;;12.40;1.00;;;;;;4992361;28;20038;-72
2023/01/18 01:02:05;;;;;;;3.33;1.30;;;12.50;1.00;;;;;;4993049;28;20055;-74
2023/01/18 01:07:18;;;;;;;1.52;0.80;;;12.50;1.00;;;;;;4993514;28;20518;-74
2023/01/18 01:09:46;;;;;;;1.88;0.70;;;12.50;1.00;;;;;;4991942;28;20034;-73
2023/01/18 01:26:06;;;;;;;4.40;1.58;;;12.50;1.00;;;;;;4991042;28;20383;-74
2023/01/18 01:28:34;;;;;;;3.58;1.58;;;12.60;1.00;;;;;;4991532;28;20042;-73
2023/01/18 01:31:03;;;;;;;3.33;1.30;;;12.60;1.00;;;;;;4991705;28;20031;-72
2023/01/18 01:33:32;;;;;;;3.55;1.15;;;12.70;1.00;;;;;;4992504;28;20104;-73
2023/01/18 01:36:01;;;;;;;3.28;1.15;;;12.70;1.00;;;;;;4991095;28;20405;-72
2023/01/18 01:38:29;;;;;;;4.32;1.70;;;12.50;1.00;;;;;;4992053;28;20046;-73
2023/01/18 01:40:58;;;;;;;4.47;1.48;;;12.40;1.00;;;;;;4989448;28;20043;-73
2023/01/18 01:43:44;;;;;;;3.65;1.73;;;12.30;1.00;;;;;;4989513;28;20057;-72
2023/01/18 01:46:21;;;;;;;4.85;1.52;;;12.30;1.00;;;;;;4992191;28;20121;-72
2023/01/18 01:48:48;;;;;;;5.65;1.95;;;12.30;1.00;;;;;;4990744;28;20046;-73
2023/01/18 01:51:18;;;;;;;5.43;2.22;;;12.40;1.00;;;;;;4990595;28;20085;-73
2023/01/18 01:53:47;;;;;;;6.15;2.90;;;12.40;1.00;;;;;;4991877;28;20073;-73
2023/01/18 01:56:14;;;;;;;4.35;1.90;;;12.50;1.00;;;;;;4990471;28;20050;-72
2023/01/18 01:58:44;;;;;;;4.53;1.70;;;12.50;1.00;;;;;;4991628;28;20046;-73
2023/01/18 02:01:12;;;;;;;4.15;1.40;;;12.60;1.00;;;;;;4990425;28;20050;-72
2023/01/18 02:03:41;;;;;;;6.47;3.72;;;12.60;1.00;;;;;;4989198;28;20446;-72
2023/01/18 02:06:18;;;;;;;5.60;2.85;;;12.80;1.00;;;;;;4974543;28;20494;-72
2023/01/18 02:08:47;;;;;;;10.40;5.20;;;12.80;1.00;;;;;;4970413;28;20452;-72
2023/01/18 02:11:14;;;;;;;2.35;1.30;;;12.80;1.00;;;;;;4973558;28;20491;-72
2023/01/18 02:13:43;;;;;;;4.68;2.63;;;12.90;1.00;;;;;;4990060;28;20039;-72
2023/01/18 02:16:17;;;;;;;25.05;15.70;;;12.90;1.00;;;;;;4990399;28;20412;-72
2023/01/18 02:18:52;;;;;;;2.70;0.93;;;12.90;1.00;;;;;;4991251;28;20405;-72
2023/01/18 02:21:24;;;;;;;2.30;1.13;;;12.90;1.00;;;;;;4973494;28;20056;-73
2023/01/18 02:24:29;;;;;;;5.35;1.88;;;12.90;1.00;;;;;;4989157;28;20046;-72
2023/01/18 02:27:06;;;;;;;4.25;1.80;;;12.80;1.00;;;;;;4999456;23;20050;-79
2023/01/18 02:30:06;;;;;;;3.88;1.73;;;12.70;1.00;;;;;;4971890;28;20038;-78
2023/01/18 02:32:47;;;;;;;3.95;1.42;;;12.50;1.00;;;;;;4961806;28;20053;-80
2023/01/18 02:35:20;;;;;;;4.28;2.05;;;12.50;1.00;;;;;;4962597;28;20042;-76
2023/01/18 02:37:56;;;;;;;4.00;1.48;;;12.50;1.00;;;;;;4963668;28;20054;-79
2023/01/18 02:40:27;;;;;;;;;;;12.50;1.00;;;;;;4964026;28;20491;-79
2023/01/18 02:48:34;;;;;;;3.28;0.80;;;12.50;1.00;;;;;;4962843;28;20043;-78
2023/01/18 02:51:01;;;;;;;0.57;0.22;;;12.60;1.00;;;;;;4962476;28;20387;-76
2023/01/18 02:53:29;;;;;;;0.73;0.30;;;12.50;1.00;;;;;;4960528;28;20499;-78
2023/01/18 02:56:00;;;;;;;1.45;0.50;;;12.50;1.00;;;;;;4962625;28;20510;-76
2023/01/18 02:58:32;;;;;;;2.15;0.80;;;12.50;1.00;;;;;;4961481;28;20042;-78
2023/01/18 03:01:06;;;;;;;1.48;0.50;;;12.40;1.00;;;;;;4971659;28;20062;-76
2023/01/18 03:03:35;;;;;;;1.98;0.82;;;12.40;1.00;;;;;;4968467;28;20039;-77
2023/01/18 03:06:06;;;;;;;2.50;0.80;;;12.40;1.00;;;;;;4961692;28;20047;-77
2023/01/18 03:08:38;;;;;;;2.75;1.00;;;12.40;1.00;;;;;;4961531;28;20041;-79
2023/01/18 03:11:11;;;;;;;1.52;0.65;;;12.30;1.00;;;;;;4961380;28;20054;-78
2023/01/18 03:14:01;;;;;;;2.35;0.93;;;12.30;1.00;;;;;;4961085;28;20046;-78
2023/01/18 03:16:40;;;;;;;1.23;0.45;;;12.40;1.00;;;;;;4961822;28;20417;-77
2023/01/18 03:22:04;;;;;;;2.72;1.25;;;12.40;1.00;;;;;;4960057;28;20040;-78
2023/01/18 03:24:39;;;;;;;3.75;1.73;;;12.30;1.00;;;;;;4962087;28;20039;-77
2023/01/18 03:35:27;;;;;;;0.40;0.20;;;12.30;1.00;;;;;;4958499;28;20130;-79
2023/01/18 03:37:57;;;;;;;0.65;0.25;;;12.30;1.00;;;;;;4964657;28;20053;-78
2023/01/18 03:40:28;;;;;;;0.25;0.10;;;12.20;1.00;;;;;;4962953;28;20075;-78
2023/01/18 03:43:02;;;;;;;0.20;0.20;;;12.20;1.00;;;;;;4958623;28;20692;-80
2023/01/18 03:45:32;;;;;;;0.57;0.20;;;12.10;1.00;;;;;;4961362;28;20047;-79
2023/01/18 03:48:02;;;;;;;0.50;0.20;;;12.20;1.00;;;;;;4964329;28;20055;-77
2023/01/18 03:50:37;;;;;;;1.33;0.63;;;12.20;1.00;;;;;;4959470;28;20081;-79
2023/01/18 03:53:12;;;;;;;1.20;0.60;;;12.20;1.00;;;;;;4962268;28;20045;-79
2023/01/18 03:55:44;;;;;;;3.22;1.10;;;12.20;1.00;;;;;;4963107;28;20061;-78
2023/01/18 03:58:15;;;;;;;2.65;0.90;;;12.20;1.00;;;;;;4964608;28;20047;-78
2023/01/18 04:00:42;;;;;;;1.92;0.90;;;12.10;1.00;;;;;;4961569;28;20047;-78
2023/01/18 04:03:11;;;;;;;2.10;0.90;;;12.10;1.00;;;;;;4965599;28;20039;-78
2023/01/18 04:05:39;;;;;;;1.33;0.68;;;12.10;1.00;;;;;;4970648;28;20555;-75
2023/01/18 04:08:07;;;;;;;3.92;2.13;;;12.00;1.00;;;;;;4977962;28;20050;-77
2023/01/18 04:10:34;;;;;;;3.13;1.30;;;12.10;1.00;;;;;;4972072;28;20043;-76
2023/01/18 04:13:02;;;;;;;2.90;1.30;;;12.00;1.00;;;;;;4967657;28;20061;-75
2023/01/18 04:15:29;;;;;;;3.83;1.83;;;12.00;1.00;;;;;;4961933;28;20406;-76
2023/01/18 04:17:56;;;;;;;5.97;2.50;;;12.00;1.00;;;;;;4962911;28;20050;-77
2023/01/18 04:20:25;;;;;;;6.05;2.90;;;12.00;1.00;;;;;;4974713;28;20046;-76
2023/01/18 04:22:54;;;;;;;4.20;1.90;;;11.90;1.00;;;;;;4984878;28;20099;-76
2023/01/18 04:25:22;;;;;;;5.57;2.63;;;11.90;1.00;;;;;;4975597;28;20055;-75
2023/01/18 04:27:49;;;;;;;5.10;2.33;;;11.90;1.00;;;;;;4972120;28;20055;-77
2023/01/18 04:30:17;;;;;;;10.27;5.10;;;11.70;1.00;;;;;;4979938;28;20070;-75
2023/01/18 04:32:45;;;;;;;9.38;5.10;;;11.60;1.00;;;;;;4977213;28;20047;-78
2023/01/18 04:35:13;;;;;;;12.73;5.20;;;11.70;1.00;;;;;;4980086;28;20053;-76
2023/01/18 04:37:42;;;;;;;8.15;3.45;;;11.70;1.00;;;;;;4983260;28;20111;-74
2023/01/18 04:40:10;;;;;;;4.00;1.88;;;11.70;1.00;;;;;;4982399;28;20046;-76
2023/01/18 04:42:37;;;;;;;5.13;1.77;;;11.80;1.00;;;;;;4981668;28;20122;-72
2023/01/18 04:45:06;;;;;;;4.30;2.05;;;11.80;1.00;;;;;;4971001;28;20057;-75
2023/01/18 04:47:33;;;;;;;1.63;0.50;;;11.80;1.00;;;;;;4974169;28;20107;-74
2023/01/18 04:50:01;;;;;;;3.45;1.02;;;11.90;1.00;;;;;;4963346;28;20561;-76
2023/01/18 04:52:31;;;;;;;3.20;1.33;;;12.10;1.00;;;;;;4963402;28;20035;-75
2023/01/18 04:54:59;;;;;;;1.63;0.73;;;12.10;1.00;;;;;;4965377;28;20054;-77
2023/01/18 04:57:27;;;;;;;3.10;1.30;;;12.20;1.00;;;;;;4965183;28;20118;-79
2023/01/18 04:59:54;;;;;;;1.60;0.70;;;12.20;1.00;;;;;;4965056;28;20051;-74
2023/01/18 05:02:22;;;;;;;2.13;0.77;;;12.10;1.00;;;;;;4960148;28;20093;-78
2023/01/18 05:04:49;;;;;;;2.22;0.93;;;12.10;1.00;;;;;;4964847;28;20039;-77
2023/01/18 05:07:16;;;;;;;2.70;0.90;;;12.00;1.00;;;;;;4963730;28;20039;-78
2023/01/18 05:09:44;;;;;;;1.17;0.63;;;11.90;1.00;;;;;;4983102;28;20071;-78
2023/01/18 05:12:12;;;;;;;4.03;1.40;;;11.90;1.00;;;;;;4987048;28;20416;-75
2023/01/18 05:14:40;;;;;;;4.13;2.22;;;12.00;1.00;;;;;;4988145;28;20035;-74
2023/01/18 05:17:07;;;;;;;4.72;2.13;;;12.10;1.00;;;;;;4978363;28;20042;-74
2023/01/18 05:19:35;;;;;;;5.28;2.00;;;12.10;1.00;;;;;;5004373;28;20047;-73
2023/01/18 05:22:02;;;;;;;2.58;1.27;;;12.10;1.00;;;;;;4976632;28;20078;-78
2023/01/18 05:24:30;;;;;;;2.50;0.70;;;12.00;1.00;;;;;;4965991;28;20487;-76
2023/01/18 05:26:57;;;;;;;4.57;1.40;;;12.00;1.00;;;;;;4962572;28;20060;-77
2023/01/18 05:29:26;;;;;;;4.50;2.25;;;11.90;1.00;;;;;;4962913;28;20039;-77
2023/01/18 05:31:53;;;;;;;10.30;5.68;;;11.80;1.00;;;;;;4964441;28;20050;-78
2023/01/18 05:34:21;;;;;;;6.43;3.70;;;11.70;1.00;;;;;;4963127;28;20047;-77
2023/01/18 05:36:48;;;;;;;17.30;9.82;;;11.50;1.00;;;;;;4963330;28;20129;-78
2023/01/18 05:39:16;;;;;;;22.85;13.65;;;11.40;1.00;;;;;;4963684;28;20051;-75
2023/01/18 05:41:43;;;;;;;23.23;14.45;;;11.40;1.00;;;;;;4964099;28;20511;-78
2023/01/18 05:44:11;;;;;;;31.83;19.10;;;11.40;1.00;;;;;;4963714;28;20066;-78
2023/01/18 05:46:39;;;;;;;19.95;12.60;;;11.40;1.00;;;;;;4963733;28;20587;-78
2023/01/18 05:49:07;;;;;;;21.63;13.98;;;11.40;1.00;;;;;;4961722;28;20154;-76
2023/01/18 05:51:36;;;;;;;23.13;13.90;;;11.50;1.00;;;;;;4962318;28;20090;-79
2023/01/18 05:54:03;;;;;;;19.17;11.70;;;11.50;1.00;;;;;;4963895;28;20047;-79
2023/01/18 05:56:31;;;;;;;17.58;10.65;;;11.50;1.00;;;;;;4961694;28;20458;-77
2023/01/18 05:58:59;;;;;;;17.83;9.85;;;11.40;1.00;;;;;;4962034;28;20035;-76
2023/01/18 06:01:26;;;;;;;10.32;5.80;;;11.30;1.00;;;;;;4962992;28;20463;-76
2023/01/18 06:03:55;;;;;;;8.68;4.80;;;11.20;1.00;;;;;;4968046;28;20062;-78
2023/01/18 06:06:22;;;;;;;5.45;2.53;;;11.00;1.00;;;;;;4961035;28;20051;-76
2023/01/18 06:08:50;;;;;;;8.38;4.57;;;10.60;1.00;;;;;;4964238;28;20047;-76
2023/01/18 06:11:18;;;;;;;10.43;3.60;;;10.50;99.90;;;;;;4958514;28;20414;-74
2023/01/18 06:13:45;;;;;;;9.05;3.88;;;10.30;1.00;;;;;;4961564;28;20479;-78
2023/01/18 06:16:12;;;;;;;11.05;4.57;;;9.90;1.00;;;;;;4961765;28;20094;-76
2023/01/18 06:18:40;;;;;;;9.50;4.68;;;9.60;99.90;;;;;;4963481;28;20054;-77
2023/01/18 06:21:10;;;;;;;9.15;5.22;;;9.40;99.90;;;;;;4961073;28;20042;-77
2023/01/18 06:23:38;;;;;;;8.73;5.35;;;9.30;99.90;;;;;;4959320;28;20153;-78
2023/01/18 06:26:05;;;;;;;6.88;4.35;;;9.20;99.90;;;;;;4961596;28;20042;-78
2023/01/18 06:28:33;;;;;;;7.70;4.32;;;9.10;99.90;;;;;;4960282;28;20062;-77
2023/01/18 06:31:03;;;;;;;10.68;4.78;;;8.90;99.90;;;;;;4960624;28;20050;-78
2023/01/18 06:33:31;;;;;;;12.85;6.82;;;8.90;99.90;;;;;;4959763;28;20042;-77
2023/01/18 06:35:58;;;;;;;12.05;7.40;;;8.80;99.90;;;;;;4960306;28;20039;-77
2023/01/18 06:38:28;;;;;;;10.30;6.63;;;8.80;99.90;;;;;;4957532;28;20037;-77
2023/01/18 06:40:56;;;;;;;13.52;7.38;;;8.80;99.90;;;;;;4961795;28;20081;-76
2023/01/18 06:43:23;;;;;;;13.68;8.27;;;8.80;99.90;;;;;;4961384;28;20047;-79
2023/01/18 06:45:54;;;;;;;13.27;9.98;;;8.80;99.90;;;;;;4959326;28;20050;-78
2023/01/18 06:48:22;;;;;;;16.15;11.07;;;8.70;99.90;;;;;;4960308;28;20130;-76
2023/01/18 06:50:51;;;;;;;15.25;10.60;;;8.70;99.90;;;;;;4960481;28;20046;-77
2023/01/18 06:53:19;;;;;;;15.77;8.57;;;8.70;99.90;;;;;;4958173;28;20046;-77
2023/01/18 06:55:55;;;;;;;11.43;7.18;;;8.60;99.90;;;;;;4958795;28;20035;-77
2023/01/18 06:58:24;;;;;;;11.38;7.50;;;8.60;99.90;;;;;;4963584;28;20035;-76
2023/01/18 07:00:54;;;;;;;20.58;14.13;;;8.60;99.90;;;;;;4968128;28;20035;-75
2023/01/18 07:03:22;;;;;;;16.50;8.25;;;8.70;99.90;;;;;;4971123;28;20031;-76
2023/01/18 07:05:50;;;;;;;13.48;8.82;;;8.70;99.90;;;;;;4979782;28;20049;-75
2023/01/18 07:08:19;;;;;;;16.33;10.13;;;8.60;99.90;;;;;;4970852;28;20106;-75
2023/01/18 07:10:47;;;;;;;15.48;10.18;;;8.60;99.90;;;;;;4983311;28;20043;-76
2023/01/18 07:13:16;;;;;;;17.83;14.18;;;8.60;99.90;;;;;;4969276;28;20051;-77
2023/01/18 07:15:44;;;;;;;23.17;16.52;;;8.50;99.90;;;;;;4960190;28;20046;-78
2023/01/18 07:18:11;;;;;;;21.50;13.23;;;8.50;99.90;;;;;;4959529;28;20039;-77
2023/01/18 07:20:39;;;;;;;15.45;12.57;;;8.50;99.90;;;;;;4961270;28;20488;-78
2023/01/18 07:23:06;;;;;;;15.80;13.52;;;8.50;99.90;;;;;;4960699;28;20039;-78
2023/01/18 07:25:34;;;;;;;20.85;16.80;;;8.40;99.90;;;;;;4963853;28;20058;-77
2023/01/18 07:28:03;;;;;;;13.73;8.55;;;8.50;99.90;;;;;;4959225;28;20054;-78
2023/01/18 07:30:32;;;;;;;7.75;3.72;;;8.40;99.90;;;;;;4960334;28;20043;-78
2023/01/18 07:32:59;;;;;;;7.40;4.63;;;8.40;99.90;;;;;;4963707;28;20042;-77
2023/01/18 07:35:27;;;;;;;9.70;3.70;;;8.40;99.90;;;;;;4972510;28;20491;-76
2023/01/18 07:37:54;;;;;;;7.38;4.20;;;8.40;99.90;;;;;;4964577;28;20046;-74
2023/01/18 07:40:22;;;;;;;6.00;3.55;;;8.50;99.90;;;;;;4959913;28;20042;-75
2023/01/18 07:42:56;;;;;;;8.57;3.78;;;8.60;99.90;;;;;;4959835;28;20039;-77
2023/01/18 07:45:23;;;;;;;9.80;4.90;;;8.70;99.90;;;;;;4960787;28;20042;-77
2023/01/18 07:47:52;;;;;;;7.07;3.67;;;8.70;99.90;;;;;;4976473;28;20043;-76
2023/01/18 07:50:20;;;;;;;8.88;5.13;;;8.80;99.90;;;;;;4962113;28;20047;-76
2023/01/18 07:52:48;;;;;;;9.80;5.43;;;8.90;99.90;;;;;;4960338;28;20066;-77
2023/01/18 07:55:15;;;;;;;9.88;5.68;;;9.00;99.90;;;;;;4961627;28;20055;-77
2023/01/18 07:57:43;;;;;;;9.90;6.20;;;9.10;99.90;;;;;;4964407;28;20047;-76
2023/01/18 08:00:13;;;;;;;11.02;6.18;;;9.20;99.90;;;;;;4965125;28;20035;-76
2023/01/18 08:02:43;;;;;;;13.73;7.85;;;9.20;99.90;;;;;;4963493;28;20032;-76
2023/01/18 08:05:12;;;;;;;14.82;8.30;;;9.20;99.90;;;;;;4963779;28;20039;-74
2023/01/18 08:07:40;;;;;;;13.13;7.55;;;9.20;99.90;;;;;;4964301;28;20044;-73
2023/01/18 08:10:08;;;;;;;17.05;7.20;;;9.20;99.90;;;;;;4965024;28;20057;-76
2023/01/18 08:12:36;;;;;;;10.80;6.72;;;9.20;99.90;;;;;;4981414;28;20126;-75
2023/01/18 08:15:04;;;;;;;14.45;8.23;;;9.20;99.90;;;;;;4967473;28;20043;-74
2023/01/18 08:17:31;;;;;;;11.77;6.88;;;9.30;99.90;;;;;;4962713;28;20278;-76
2023/01/18 08:19:59;;;;;;;10.70;5.30;;;9.30;99.90;;;;;;4963160;28;20047;-76
2023/01/18 08:22:28;;;;;;;8.50;4.70;;;9.40;99.90;;;;;;4962925;28;20042;-77
2023/01/18 08:24:55;;;;;;;6.35;4.22;;;9.50;99.90;;;;;;4966102;28;20046;-76
2023/01/18 08:27:23;;;;;;;9.63;4.63;;;9.50;99.90;;;;;;4970587;28;20118;-74
2023/01/18 08:29:50;;;;;;;8.68;4.57;;;9.50;99.90;;;;;;4962660;28;20046;-77
2023/01/18 08:32:17;;;;;;;9.55;5.70;;;9.60;99.90;;;;;;4963889;28;20182;-74
2023/01/18 08:34:46;;;;;;;9.07;5.97;;;9.70;99.90;;;;;;4970298;28;20043;-76
2023/01/18 08:37:13;;;;;;;9.40;5.93;;;9.80;99.90;;;;;;5002524;28;20111;-75
2023/01/18 08:39:43;;;;;;;8.98;5.75;;;9.80;99.90;;;;;;4984110;28;20063;-76
2023/01/18 08:42:12;;;;;;;9.98;6.22;;;9.90;99.90;;;;;;4968381;28;20053;-76
2023/01/18 08:44:42;;;;;;;16.20;9.55;;;9.80;99.90;;;;;;4967503;28;20233;-74
2023/01/18 08:47:09;;;;;;;16.20;8.18;;;9.80;99.90;;;;;;4972556;28;20114;-73
2023/01/18 08:49:36;;;;;;;22.50;13.27;;;9.90;99.90;;;;;;4972546;28;20079;-76
2023/01/18 08:52:04;;;;;;;20.83;12.55;;;9.90;99.90;;;;;;4969545;28;20142;-75
2023/01/18 08:54:31;;;;;;;20.52;13.02;;;9.90;99.90;;;;;;4969247;28;20118;-74
2023/01/18 08:57:01;;;;;;;38.83;22.38;;;9.90;99.90;;;;;;4980674;28;20039;-75
2023/01/18 08:59:29;;;;;;;34.90;21.65;;;10.00;99.90;;;;;;4982445;28;20034;-74
2023/01/18 09:01:57;;;;;;;49.47;30.08;;;10.10;99.90;;;;;;4981011;28;20065;-77
2023/01/18 09:04:26;;;;;;;45.45;28.63;;;10.10;99.90;;;;;;4963448;28;20051;-77
2023/01/18 09:06:54;;;;;;;58.95;36.75;;;10.10;99.90;;;;;;4977074;28;20065;-76
2023/01/18 09:09:21;;;;;;;53.03;32.10;;;10.20;99.90;;;;;;4966167;28;20043;-77
2023/01/18 09:11:51;;;;;;;39.83;22.45;;;10.20;99.90;;;;;;4963715;28;20403;-77
2023/01/18 09:14:20;;;;;;;49.67;30.60;;;10.30;99.90;;;;;;4959346;28;20047;-78
2023/01/18 09:16:50;;;;;;;40.95;23.55;;;10.50;99.90;;;;;;4985340;28;20054;-76
2023/01/18 09:19:17;;;;;;;37.05;22.80;;;10.60;99.90;;;;;;4964462;28;20047;-77
2023/01/18 09:21:47;;;;;;;34.10;21.65;;;10.70;99.90;;;;;;4961689;28;20049;-75
2023/01/18 09:24:15;;;;;;;29.67;18.05;;;10.90;99.90;;;;;;4963947;28;20054;-75
2023/01/18 09:26:42;;;;;;;24.35;15.63;;;11.00;99.90;;;;;;4963323;28;20078;-73
2023/01/18 09:29:09;;;;;;;28.67;17.20;;;11.10;99.90;;;;;;4964186;28;20047;-76
2023/01/18 09:31:38;;;;;;;25.05;14.18;;;11.20;99.90;;;;;;4964999;28;20050;-76
2023/01/18 09:34:06;;;;;;;22.77;14.18;;;11.30;99.90;;;;;;4964320;28;20042;-75
2023/01/18 09:36:34;;;;;;;24.88;14.32;;;11.40;99.90;;;;;;4963537;28;20042;-76
2023/01/18 09:39:01;;;;;;;21.02;12.65;;;11.50;99.90;;;;;;4965733;28;20043;-76
2023/01/18 09:41:34;;;;;;;21.55;13.13;;;11.60;99.90;;;;;;4974576;28;20072;-76
2023/01/18 09:44:06;;;;;;;20.33;12.32;;;11.70;99.90;;;;;;4974098;28;20038;-76
2023/01/18 09:46:38;;;;;;;14.98;9.32;;;11.90;99.90;;;;;;4972631;28;20043;-75
2023/01/18 09:49:16;;;;;;;9.88;6.20;;;12.10;99.90;;;;;;4963751;28;20043;-75
2023/01/18 09:51:53;;;;;;;9.95;5.75;;;12.30;99.90;;;;;;4965716;28;20047;-75
2023/01/18 09:54:33;;;;;;;7.70;4.90;;;12.30;99.90;;;;;;4967347;28;20043;-75
2023/01/18 09:57:08;;;;;;;6.00;3.88;;;12.40;99.90;;;;;;4985085;28;20043;-74
2023/01/18 09:59:42;;;;;;;5.65;3.63;;;12.40;99.90;;;;;;5009340;28;20030;-78
2023/01/18 10:02:18;;;;;;;7.45;3.70;;;12.50;99.90;;;;;;4980169;28;20122;-77
2023/01/18 10:04:51;;;;;;;5.38;3.35;;;12.60;1.00;;;;;;4978568;28;20050;-77
2023/01/18 10:07:20;;;;;;;5.22;3.15;;;12.70;1.00;;;;;;4960303;28;20047;-77
2023/01/18 10:09:50;;;;;;;3.67;1.98;;;12.90;99.90;;;;;;4962416;28;20047;-76
2023/01/18 10:12:25;;;;;;;4.07;2.50;;;13.10;99.90;;;;;;4963289;28;20060;-74
2023/01/18 10:14:58;;;;;;;5.82;2.90;;;13.20;99.90;;;;;;4965919;28;20051;-77
2023/01/18 10:17:32;;;;;;;4.70;3.03;;;13.30;99.90;;;;;;4963195;28;20043;-78
2023/01/18 10:20:01;;;;;;;5.78;3.33;;;13.40;99.90;;;;;;4962680;28;20262;-77
2023/01/18 10:22:34;;;;;;;6.10;3.17;;;13.40;99.90;;;;;;4960633;28;20057;-78
2023/01/18 10:25:05;;;;;;;6.88;3.65;;;13.20;99.90;;;;;;4962370;28;20515;-76
2023/01/18 10:28:05;;;;;;;7.85;4.20;;;13.00;99.90;;;;;;4962676;28;20059;-75
2023/01/18 10:30:49;;;;;;;10.95;6.97;;;13.00;1.00;;;;;;4959511;28;20059;-74
2023/01/18 10:33:20;;;;;;;8.55;4.55;;;13.20;99.90;;;;;;4962692;28;20051;-77
2023/01/18 10:35:54;;;;;;;5.85;2.78;;;13.30;2.70;;;;;;4962146;28;20121;-76
2023/01/18 10:38:27;;;;;;;12.25;7.57;;;13.30;1.00;;;;;;4963694;28;20027;-75
2023/01/18 10:40:57;;;;;;;9.20;5.65;;;13.40;1.00;;;;;;4963093;28;20036;-78
2023/01/18 10:43:26;;;;;;;8.80;5.25;;;13.50;1.00;;;;;;4962741;28;20579;-76
2023/01/18 10:45:54;;;;;;;8.80;5.05;;;13.60;1.00;;;;;;4964221;28;20150;-78
2023/01/18 10:48:28;;;;;;;7.68;4.63;;;13.60;1.00;;;;;;4968985;28;20101;-74
2023/01/18 10:51:00;;;;;;;9.02;5.07;;;13.80;99.90;;;;;;4965209;28;20043;-75
2023/01/18 10:53:31;;;;;;;11.32;6.43;;;13.90;99.90;;;;;;4964229;28;20142;-77
2023/01/18 10:56:03;;;;;;;6.65;3.13;;;14.00;65.20;;;;;;4960816;28;20043;-76
2023/01/18 10:58:37;;;;;;;4.20;1.90;;;14.10;1.00;;;;;;4963468;28;20055;-77
2023/01/18 11:01:05;;;;;;;4.72;2.05;;;14.20;1.00;;;;;;4962675;28;20039;-76
2023/01/18 11:03:45;;;;;;;5.25;2.03;;;14.20;1.00;;;;;;4962681;28;20126;-77
2023/01/18 11:06:15;;;;;;;5.85;2.08;;;14.40;1.00;;;;;;4961680;28;20051;-76
2023/01/18 11:08:43;;;;;;;5.63;2.38;;;14.50;1.00;;;;;;4963210;28;20038;-77
2023/01/18 11:11:18;;;;;;;3.97;1.92;;;14.70;1.00;;;;;;4963287;28;20038;-76
2023/01/18 11:13:47;;;;;;;4.72;2.05;;;14.70;1.00;;;;;;4963078;28;20130;-79
2023/01/18 11:16:16;;;;;;;6.43;2.00;;;14.90;1.00;;;;;;4964463;28;20684;-78
2023/01/18 11:19:06;;;;;;;5.68;2.10;;;15.10;1.00;;;;;;4962674;28;20045;-78
2023/01/18 11:21:48;;;;;;;8.25;2.00;;;15.20;1.00;;;;;;4960775;28;20437;-77
2023/01/18 11:24:17;;;;;;;6.00;2.33;;;15.20;1.00;;;;;;4961585;28;20130;-76
2023/01/18 11:26:59;;;;;;;6.30;2.60;;;15.30;1.00;;;;;;4961346;28;20086;-76
2023/01/18 11:29:29;;;;;;;4.95;2.55;;;15.20;1.00;;;;;;4963816;28;20046;-76
2023/01/18 11:32:03;;;;;;;6.05;2.60;;;15.20;1.00;;;;;;4961893;28;20050;-78
2023/01/18 11:34:33;;;;;;;7.40;2.65;;;15.20;1.00;;;;;;4961539;28;20129;-74
2023/01/18 11:37:04;;;;;;;9.82;2.55;;;15.20;1.00;;;;;;4962471;28;20101;-77
2023/01/18 11:39:33;;;;;;;7.13;2.25;;;15.40;1.00;;;;;;4961788;28;20106;-75
2023/01/18 11:42:33;;;;;;;10.18;2.28;;;15.50;1.00;;;;;;4963558;28;20057;-76
2023/01/18 11:45:21;;;;;;;5.80;2.45;;;15.40;1.00;;;;;;4904894;29;20559;-75
2023/01/18 11:48:00;;;;;;;7.88;2.35;;;15.50;1.00;;;;;;4903124;29;20059;-75
2023/01/18 11:50:37;;;;;;;8.10;3.08;;;15.60;1.00;;;;;;4885894;29;20063;-76
2023/01/18 11:53:21;;;;;;;6.50;2.30;;;15.40;1.00;;;;;;4903393;29;20056;-76
2023/01/18 11:56:00;;;;;;;8.17;3.33;;;15.40;1.00;;;;;;4904976;29;20055;-74
2023/01/18 11:58:30;;;;;;;5.72;2.03;;;15.50;1.00;;;;;;4907832;29;20112;-77
2023/01/18 12:01:20;;;;;;;10.63;2.72;;;15.50;1.00;;;;;;4909704;29;20045;-73
2023/01/18 12:03:56;;;;;;;4.80;1.42;;;15.60;1.00;;;;;;4908501;29;20091;-75
2023/01/18 12:06:35;;;;;;;6.55;2.35;;;15.40;1.00;;;;;;4906824;29;20446;-76
2023/01/18 12:09:22;;;;;;;7.70;2.38;;;15.50;1.00;;;;;;4902655;29;20529;-77
2023/01/18 12:12:06;;;;;;;9.52;5.07;;;15.70;1.00;;;;;;4914343;29;20064;-76
2023/01/18 12:14:46;;;;;;;16.50;5.70;;;16.10;1.00;;;;;;4907138;29;20192;-75
2023/01/18 12:17:38;;;;;;;21.60;11.15;;;16.30;1.00;;;;;;4910458;29;20083;-74
2023/01/18 12:20:27;;;;;;;13.18;7.57;;;16.60;1.00;;;;;;4972641;28;20055;-76
2023/01/18 12:23:35;;;;;;;10.15;4.03;;;16.70;1.00;;;;;;4975282;28;20046;-76
2023/01/18 12:26:16;;;;;;;3.65;2.10;;;16.80;1.00;;;;;;4955115;28;20114;-76
2023/01/18 12:29:02;;;;;;;6.50;2.30;;;16.60;1.00;;;;;;4962092;28;20482;-77
2023/01/18 12:31:44;;;;;;;4.95;2.47;;;16.50;1.00;;;;;;4960773;28;20074;-75
2023/01/18 12:34:16;;;;;;;4.28;2.08;;;16.30;1.00;;;;;;4962046;28;20071;-77
2023/01/18 12:37:10;;;;;;;5.25;3.03;;;16.30;1.00;;;;;;4961207;28;20503;-76
2023/01/18 12:39:58;;;;;;;5.43;1.95;;;16.50;1.00;;;;;;4961735;28;20049;-74
2023/01/18 12:42:42;;;;;;;4.63;1.70;;;15.90;1.00;;;;;;4961954;28;20065;-76
2023/01/18 12:45:25;;;;;;;4.15;1.30;;;15.70;1.00;;;;;;4963778;28;20070;-77
2023/01/18 12:48:01;;;;;;;4.13;1.40;;;15.60;1.00;;;;;;4966128;28;20133;-77
2023/01/18 12:50:31;;;;;;;4.07;2.00;;;15.70;1.00;;;;;;4963501;28;20055;-77
2023/01/18 12:53:04;;;;;;;4.95;2.20;;;15.80;1.00;;;;;;4961433;28;20044;-77
2023/01/18 12:55:35;;;;;;;7.82;2.10;;;15.90;1.00;;;;;;4962227;28;20403;-77
2023/01/18 12:58:04;;;;;;;5.15;2.30;;;15.90;1.00;;;;;;4962577;28;20046;-78
2023/01/18 13:00:36;;;;;;;4.03;1.63;;;15.80;1.00;;;;;;4962187;28;20053;-75
2023/01/18 13:03:10;;;;;;;7.88;3.63;;;15.90;1.00;;;;;;4962852;28;20043;-77
2023/01/18 13:05:49;;;;;;;7.88;3.25;;;16.00;1.00;;;;;;4959763;28;20065;-77
2023/01/18 13:08:23;;;;;;;4.68;1.50;;;16.20;1.00;;;;;;4962411;28;20070;-77
2023/01/18 13:10:51;;;;;;;5.18;2.20;;;16.20;1.00;;;;;;4966192;28;20093;-74
2023/01/18 13:13:23;;;;;;;6.88;1.70;;;16.00;1.00;;;;;;4962623;28;20059;-75
2023/01/18 13:15:57;;;;;;;4.97;1.58;;;15.90;1.00;;;;;;4966988;28;20517;-77
2023/01/18 13:18:31;;;;;;;6.38;2.42;;;15.90;1.00;;;;;;4965925;28;20047;-77
2023/01/18 13:21:09;;;;;;;7.43;1.80;;;15.90;1.00;;;;;;4975985;28;20575;-76
2023/01/18 13:23:50;;;;;;;4.75;2.20;;;15.90;1.00;;;;;;4969418;28;20074;-76
2023/01/18 13:26:25;;;;;;;8.15;2.50;;;15.80;1.00;;;;;;4963018;28;20051;-76
2023/01/18 13:29:16;;;;;;;6.27;2.90;;;15.70;1.00;;;;;;4964999;28;20098;-75
2023/01/18 13:31:45;;;;;;;7.97;2.72;;;15.60;1.00;;;;;;4964309;28;20043;-76
2023/01/18 13:34:28;;;;;;;3.78;1.90;;;15.70;1.00;;;;;;4967161;28;20043;-73
2023/01/18 13:36:58;;;;;;;5.78;1.38;;;15.70;1.00;;;;;;4965997;28;20084;-75
2023/01/18 13:39:27;;;;;;;4.25;1.75;;;15.60;1.00;;;;;;4961471;28;20062;-73
2023/01/18 13:42:24;;;;;;;8.05;2.65;;;15.40;1.00;;;;;;4961946;28;20050;-75
2023/01/18 13:45:19;;;;;;;4.53;1.90;;;15.40;1.00;;;;;;4966216;28;20090;-78
2023/01/18 13:48:02;;;;;;;10.52;3.83;;;15.30;1.00;;;;;;4960602;28;20112;-76
2023/01/18 13:50:46;;;;;;;8.35;3.60;;;15.30;1.00;;;;;;4968818;28;20070;-76